Time;durP1;ratioP1;P1;durP2;ratioP2;P2;SDS_P1;SDS_P2;PMS_P1;PMS_P2;Temp;Humidity;BMP_temperature;BMP_pressure;BME280_temperature;BME280_humidity;BME280_pressure;Samples;Min_cycle;Max_cycle;Signal;HPM_P1;HPM_P2
2022/04/10 00:00:04;;;;;;;8.67;3.07;;;;;;;4.85;92.64;99764.66;10464367;28;20243;-71
2022/04/10 00:05:27;;;;;;;6.40;2.60;;;;;;;4.79;92.97;99772.34;10463495;28;20228;-67
2022/04/10 00:10:30;;;;;;;7.00;2.60;;;;;;;4.78;93.44;99787.78;10463564;28;20223;-66
2022/04/10 00:15:35;;;;;;;7.63;2.90;;;;;;;4.81;93.32;99791.22;10464238;28;20221;-68
2022/04/10 00:20:38;;;;;;;7.20;2.60;;;;;;;4.89;92.37;99786.94;10463637;28;20217;-64
2022/04/10 00:25:42;;;;;;;6.30;2.37;;;;;;;4.80;93.07;99789.47;10463143;28;20279;-66
2022/04/10 00:30:46;;;;;;;6.20;2.43;;;;;;;4.77;92.81;99801.47;10463200;28;20687;-67
2022/04/10 00:35:49;;;;;;;7.13;2.37;;;;;;;4.67;93.03;99804.03;10462903;28;20672;-64
2022/04/10 00:40:53;;;;;;;7.20;2.40;;;;;;;4.56;94.33;99809.94;10462590;28;20229;-68
2022/04/10 00:45:58;;;;;;;7.23;2.20;;;;;;;4.42;95.52;99803.88;10463289;28;20624;-67
2022/04/10 00:56:25;;;;;;;7.13;2.70;;;;;;;4.57;94.68;99820.22;10462767;28;20304;-66
2022/04/10 01:01:30;;;;;;;5.57;1.97;;;;;;;4.41;94.82;99823.59;10462424;28;20300;-66
2022/04/10 01:06:36;;;;;;;7.60;3.13;;;;;;;4.24;96.19;99830.31;10461586;28;20224;-67
2022/04/10 01:11:40;;;;;;;7.40;2.77;;;;;;;4.13;98.06;99841.34;10461042;28;20632;-67
2022/04/10 01:16:46;;;;;;;7.57;3.00;;;;;;;4.05;98.26;99841.31;10461366;28;20663;-68
2022/04/10 01:21:53;;;;;;;7.17;2.30;;;;;;;4.01;99.06;99851.53;10464397;28;20227;-70
2022/04/10 01:26:57;;;;;;;6.97;2.60;;;;;;;4.09;99.01;99850.75;10461129;28;20655;-67
2022/04/10 01:32:01;;;;;;;8.47;3.80;;;;;;;3.94;99.41;99849.75;10460752;28;20544;-67
2022/04/10 01:37:06;;;;;;;12.33;4.33;;;;;;;4.05;98.86;99853.28;10460736;28;20231;-63
2022/04/10 01:42:10;;;;;;;7.43;2.43;;;;;;;4.07;98.82;99854.16;10460435;28;20213;-66
2022/04/10 01:47:14;;;;;;;8.10;2.17;;;;;;;4.00;98.54;99865.22;10460145;28;20228;-67
2022/04/10 01:52:19;;;;;;;9.23;2.60;;;;;;;3.94;99.18;99876.31;10460308;28;20232;-70
2022/04/10 01:57:24;;;;;;;6.93;2.67;;;;;;;4.01;98.13;99878.06;10460459;28;20299;-68
2022/04/10 02:02:27;;;;;;;7.30;2.47;;;;;;;4.05;97.55;99894.34;10459693;28;20235;-67
2022/04/10 02:07:30;;;;;;;5.97;2.40;;;;;;;4.03;97.38;99891.78;10459647;28;20285;-70
2022/04/10 02:12:35;;;;;;;7.47;2.33;;;;;;;4.05;96.67;99892.66;10459648;28;20238;-68
2022/04/10 02:17:38;;;;;;;6.20;2.33;;;;;;;3.82;97.74;99901.84;10459302;28;20200;-65
2022/04/10 02:22:41;;;;;;;6.57;1.80;;;;;;;3.93;97.28;99915.66;10459073;28;20532;-66
2022/04/10 02:27:46;;;;;;;8.57;2.57;;;;;;;3.90;96.96;99913.03;10460192;28;20219;-65
2022/04/10 02:32:50;;;;;;;7.33;2.20;;;;;;;3.80;97.52;99923.19;10459498;28;20296;-67
2022/04/10 02:37:53;;;;;;;7.50;2.07;;;;;;;3.70;98.33;99917.13;10441965;28;20203;-68
2022/04/10 02:42:58;;;;;;;26.93;12.77;;;;;;;3.75;97.80;99928.31;10458790;28;20203;-69
2022/04/10 02:48:01;;;;;;;8.70;2.30;;;;;;;3.72;98.32;99919.72;10459035;28;20555;-68
2022/04/10 02:53:05;;;;;;;5.97;2.00;;;;;;;3.81;97.23;99925.81;10458658;28;20646;-64
2022/04/10 02:58:09;;;;;;;8.47;2.07;;;;;;;3.74;97.12;99938.56;10458582;28;20279;-69
2022/04/10 03:03:13;;;;;;;9.20;2.37;;;;;;;3.74;96.76;99942.00;10459253;28;20193;-63
2022/04/10 03:08:17;;;;;;;8.20;2.30;;;;;;;3.69;97.27;99940.22;10458104;28;20519;-61
2022/04/10 03:13:22;;;;;;;7.60;2.27;;;;;;;3.63;97.51;99956.41;10454755;28;20242;-64
2022/04/10 03:18:28;;;;;;;9.33;2.47;;;;;;;3.64;98.05;99960.72;10454899;28;20189;-62
2022/04/10 03:23:32;;;;;;;9.43;2.63;;;;;;;3.55;97.99;99958.03;10454940;28;20207;-66
2022/04/10 03:28:36;;;;;;;5.63;2.33;;;;;;;3.51;98.65;99953.69;10105458;28;9999723;-66
2022/04/10 03:33:39;;;;;;;6.47;2.47;;;;;;;3.44;99.19;99965.59;10454545;28;20199;-67
2022/04/10 03:38:43;;;;;;;5.57;1.73;;;;;;;3.38;99.03;99960.38;10454890;28;20216;-67
2022/04/10 03:43:48;;;;;;;7.70;2.00;;;;;;;3.45;99.74;99959.63;10459240;28;20705;-65
2022/04/10 03:48:51;;;;;;;6.70;2.27;;;;;;;3.47;98.90;99970.75;10461581;28;20540;-69
2022/04/10 03:53:54;;;;;;;7.57;2.47;;;;;;;3.40;99.10;99980.91;10461348;28;20216;-67
2022/04/10 03:58:59;;;;;;;7.43;2.43;;;;;;;3.40;99.47;99988.59;10461034;28;20223;-67
2022/04/10 04:04:02;;;;;;;7.63;2.30;;;;;;;3.32;99.59;99985.09;10461477;28;20836;-66
2022/04/10 04:09:05;;;;;;;8.37;2.47;;;;;;;3.30;99.65;99995.34;10461047;28;20660;-68
2022/04/10 04:14:11;;;;;;;5.70;2.07;;;;;;;3.34;99.73;100002.25;10462017;28;20235;-67
2022/04/10 04:19:14;;;;;;;9.37;2.67;;;;;;;3.24;100.00;100010.66;10460561;28;20707;-67
2022/04/10 04:24:17;;;;;;;8.73;2.33;;;;;;;3.26;100.00;100010.69;10460305;28;20225;-67
2022/04/10 04:29:22;;;;;;;7.60;2.33;;;;;;;3.34;100.00;100022.75;10460162;28;20231;-66
2022/04/10 04:34:25;;;;;;;6.83;2.13;;;;;;;3.39;99.75;100020.25;10460003;28;20314;-62
2022/04/10 04:39:29;;;;;;;8.23;2.20;;;;;;;3.39;99.17;100022.81;10459658;28;20228;-68
2022/04/10 04:44:33;;;;;;;7.13;2.23;;;;;;;3.27;100.00;100028.63;10460215;28;20224;-68
2022/04/10 04:49:36;;;;;;;7.10;2.57;;;;;;;3.40;100.00;100037.34;10459470;28;20221;-66
2022/04/10 04:54:40;;;;;;;7.93;2.20;;;;;;;3.42;100.00;100044.22;10458555;28;20216;-65
2022/04/10 04:59:44;;;;;;;5.47;1.83;;;;;;;3.61;98.58;100045.31;10458327;28;20228;-65
2022/04/10 05:04:48;;;;;;;9.20;2.50;;;;;;;3.66;97.62;100056.50;10458141;28;20228;-67
2022/04/10 05:09:51;;;;;;;5.17;2.27;;;;;;;3.78;96.99;100066.06;10458270;28;20597;-65
2022/04/10 05:14:56;;;;;;;6.50;1.77;;;;;;;3.88;96.89;100061.06;10458413;28;20240;-63
2022/04/10 05:19:59;;;;;;;8.23;2.30;;;;;;;3.86;96.23;100067.88;10459790;28;20217;-66
2022/04/10 05:25:03;;;;;;;9.03;2.60;;;;;;;4.05;95.58;100056.97;10457735;28;20213;-68
2022/04/10 05:30:09;;;;;;;9.00;2.53;;;;;;;4.14;93.59;100067.31;10457667;28;20223;-63
2022/04/10 05:35:13;;;;;;;5.70;1.87;;;;;;;4.11;94.78;100069.88;10457205;28;20302;-68
2022/04/10 05:40:17;;;;;;;9.67;2.30;;;;;;;4.30;93.19;100061.50;10457394;28;20217;-67
2022/04/10 05:45:22;;;;;;;6.97;2.17;;;;;;;4.26;93.60;100074.31;10457026;28;20270;-65
2022/04/10 05:50:25;;;;;;;6.10;2.13;;;;;;;4.37;93.60;100075.28;10457742;28;20225;-65
2022/04/10 05:55:29;;;;;;;7.43;2.20;;;;;;;4.46;92.52;100078.81;10457892;28;20257;-65
2022/04/10 06:00:34;;;;;;;8.73;2.03;;;;;;;4.65;92.85;100078.13;10459470;28;20295;-66
2022/04/10 06:05:37;;;;;;;7.73;2.40;;;;;;;4.67;91.93;100073.88;10457824;28;20231;-66
2022/04/10 06:10:40;;;;;;;8.93;2.43;;;;;;;4.68;91.73;100083.28;10458912;28;20273;-65
2022/04/10 06:15:45;;;;;;;4.23;1.50;;;;;;;4.73;91.25;100071.34;10459124;28;20660;-65
2022/04/10 06:20:48;;;;;;;4.87;1.93;;;;;;;4.86;91.74;100084.28;10459147;28;20230;-65
2022/04/10 06:25:52;;;;;;;6.10;2.30;;;;;;;4.96;89.78;100083.50;10459344;28;20231;-64
2022/04/10 06:30:56;;;;;;;6.73;2.00;;;;;;;5.04;89.76;100092.16;10458890;28;20291;-65
2022/04/10 06:36:00;;;;;;;5.60;2.37;;;;;;;5.03;88.88;100098.16;10442245;28;20385;-70
2022/04/10 06:41:04;;;;;;;12.27;2.37;;;;;;;5.16;88.56;100100.81;10458574;28;20227;-65
2022/04/10 06:46:09;;;;;;;6.87;2.40;;;;;;;5.10;88.26;100099.91;10457720;28;20248;-68
2022/04/10 06:51:12;;;;;;;8.40;2.10;;;;;;;5.20;89.09;100097.41;10455264;28;20248;-66
2022/04/10 06:56:15;;;;;;;6.73;2.63;;;;;;;5.33;87.94;100106.94;10455171;28;20687;-67
2022/04/10 07:01:20;;;;;;;6.93;2.50;;;;;;;5.41;86.61;100114.72;10455883;28;20248;-70
2022/04/10 07:06:23;;;;;;;5.73;2.33;;;;;;;5.58;85.63;100108.81;10438142;28;20286;-68
2022/04/10 07:11:27;;;;;;;6.30;2.60;;;;;;;5.59;84.10;100120.00;10454794;28;20232;-67
2022/04/10 07:16:31;;;;;;;9.50;3.00;;;;;;;5.75;83.56;100117.50;10109253;28;10000118;-68
2022/04/10 07:26:56;;;;;;;21.90;8.80;;;;;;;5.92;81.58;100120.19;10462229;28;20594;-66
2022/04/10 07:32:00;;;;;;;6.23;2.47;;;;;;;5.87;80.22;100115.88;10462333;28;20227;-67
2022/04/10 07:37:04;;;;;;;6.67;2.40;;;;;;;5.84;79.22;100125.31;10462195;28;20548;-66
2022/04/10 07:42:09;;;;;;;5.73;2.43;;;;;;;5.88;79.29;100125.31;10461625;28;20244;-66
2022/04/10 07:47:33;;;;;;;7.07;2.50;;;;;;;6.18;78.71;100135.75;10461534;28;20223;-65
2022/04/10 07:52:37;;;;;;;7.90;2.57;;;;;;;6.50;78.13;100140.16;10461162;28;20227;-68
2022/04/10 07:57:40;;;;;;;9.83;2.80;;;;;;;6.62;75.16;100139.31;10461046;28;20231;-70
2022/04/10 08:02:47;;;;;;;6.27;2.60;;;;;;;6.70;75.38;100150.50;10460997;28;20227;-67
2022/04/10 08:07:50;;;;;;;9.87;3.23;;;;;;;6.80;73.31;100153.09;10460645;28;20231;-69
2022/04/10 08:12:54;;;;;;;8.57;2.30;;;;;;;6.88;72.54;100159.16;10442949;28;20240;-66
2022/04/10 08:18:01;;;;;;;6.40;2.20;;;;;;;6.88;71.24;100151.41;10460445;28;20339;-65
2022/04/10 08:23:04;;;;;;;7.60;2.03;;;;;;;7.12;72.27;100157.44;10460094;28;20212;-66
2022/04/10 08:28:07;;;;;;;5.80;1.97;;;;;;;7.35;68.41;100187.53;10459508;28;20227;-69
2022/04/10 08:33:12;;;;;;;4.53;1.83;;;;;;;7.32;67.24;100169.47;10459768;28;20628;-68
2022/04/10 08:38:16;;;;;;;6.83;1.90;;;;;;;7.23;67.05;100186.69;10442710;28;20208;-65
2022/04/10 08:43:20;;;;;;;3.83;1.53;;;;;;;7.15;67.05;100196.13;10460409;28;20193;-66
2022/04/10 08:48:27;;;;;;;7.57;2.20;;;;;;;7.16;67.67;100190.13;10459069;28;20229;-66
2022/04/10 08:53:33;;;;;;;9.53;2.13;;;;;;;7.27;67.86;100201.31;10459185;28;20520;-68
2022/04/10 08:58:37;;;;;;;4.43;1.67;;;;;;;7.37;66.02;100221.97;10459124;28;20279;-71
2022/04/10 09:03:42;;;;;;;5.60;1.63;;;;;;;7.32;66.72;100207.34;10458451;28;20319;-71
2022/04/10 09:08:45;;;;;;;6.27;1.80;;;;;;;7.39;66.07;100206.47;10458689;28;20216;-68
2022/04/10 09:13:49;;;;;;;6.87;2.10;;;;;;;7.34;66.77;100219.41;10458046;28;20382;-68
2022/04/10 09:18:57;;;;;;;5.73;1.97;;;;;;;7.43;67.64;100228.88;10456606;28;20691;-70
2022/04/10 09:24:03;;;;;;;9.47;2.17;;;;;;;7.57;66.73;100224.56;10458379;28;20544;-67
2022/04/10 09:29:06;;;;;;;5.50;1.80;;;;;;;7.44;67.21;100233.19;10457519;28;20323;-68
2022/04/10 09:34:14;;;;;;;6.53;2.47;;;;;;;7.41;67.29;100246.94;10457454;28;20209;-69
2022/04/10 09:39:31;;;;;;;8.00;2.50;;;;;;;7.33;66.29;100224.56;10457352;28;20197;-67
2022/04/10 09:44:34;;;;;;;5.87;2.23;;;;;;;7.43;65.74;100227.16;10456812;28;20212;-68
2022/04/10 09:49:41;;;;;;;6.43;2.03;;;;;;;7.47;65.88;100233.19;10456960;28;20217;-66
2022/04/10 09:54:46;;;;;;;6.20;1.90;;;;;;;7.45;66.93;100240.06;10456556;28;20217;-67
2022/04/10 09:59:51;;;;;;;6.33;2.40;;;;;;;7.54;67.01;100246.06;10456356;28;20231;-68
2022/04/10 10:04:57;;;;;;;9.63;2.30;;;;;;;7.64;65.88;100242.66;10456168;28;20617;-65
2022/04/10 10:10:03;;;;;;;6.50;2.23;;;;;;;8.32;63.50;100242.56;10455856;28;20235;-69
2022/04/10 10:15:08;;;;;;;9.07;2.10;;;;;;;8.57;62.82;100235.56;10455896;28;20229;-67
2022/04/10 10:20:13;;;;;;;7.97;2.30;;;;;;;8.55;61.99;100238.16;10455879;28;20689;-65
2022/04/10 10:25:24;;;;;;;7.20;2.23;;;;;;;8.27;62.13;100251.19;10455438;28;20231;-66
2022/04/10 10:30:36;;;;;;;7.97;2.43;;;;;;;8.37;62.86;100250.31;10453487;28;20212;-68
2022/04/10 10:35:43;;;;;;;5.57;1.83;;;;;;;8.73;61.80;100245.00;10452050;28;20240;-64
2022/04/10 10:40:47;;;;;;;7.50;1.80;;;;;;;8.88;60.33;100247.50;10454647;28;20634;-67
2022/04/10 10:45:52;;;;;;;5.70;1.90;;;;;;;9.10;59.23;100249.09;10454743;28;20216;-67
2022/04/10 10:51:42;;;;;;;7.37;2.20;;;;;;;9.55;57.18;100258.28;10457044;28;20659;-66
2022/04/10 10:56:46;;;;;;;7.10;2.00;;;;;;;9.84;57.36;100251.13;10462665;28;20195;-66
2022/04/10 11:01:56;;;;;;;10.90;2.27;;;;;;;10.23;57.61;100263.75;10462781;28;20196;-68
2022/04/10 11:07:13;;;;;;;8.20;2.07;;;;;;;9.34;57.53;100242.03;10459937;28;20240;-70
2022/04/10 11:12:19;;;;;;;10.30;2.30;;;;;;;9.20;58.52;100256.81;10461270;28;20222;-68
2022/04/10 11:17:27;;;;;;;7.33;2.20;;;;;;;9.37;57.92;100256.69;10460999;28;20199;-66
2022/04/10 11:22:37;;;;;;;6.57;2.07;;;;;;;9.78;56.02;100256.38;10461720;28;20682;-69
2022/04/10 11:27:43;;;;;;;5.63;2.13;;;;;;;9.30;57.89;100261.06;10461211;28;20668;-66
2022/04/10 11:32:50;;;;;;;9.93;2.50;;;;;;;8.92;58.88;100285.44;10461600;28;20193;-68
2022/04/10 11:37:56;;;;;;;7.80;2.30;;;;;;;8.60;59.82;100277.81;10461829;28;20193;-67
2022/04/10 11:43:02;;;;;;;6.87;2.37;;;;;;;8.62;60.72;100294.19;10462015;28;20209;-67
2022/04/10 11:48:07;;;;;;;7.73;2.00;;;;;;;8.60;60.29;100295.91;10461544;28;20701;-67
2022/04/10 11:53:14;;;;;;;12.50;4.67;;;;;;;8.78;60.22;100290.69;10461549;28;20203;-66
2022/04/10 11:58:19;;;;;;;9.07;2.37;;;;;;;8.89;60.00;100307.03;10462440;28;20547;-67
2022/04/10 12:03:24;;;;;;;7.13;1.93;;;;;;;8.75;59.32;100302.78;10443690;28;20232;-65
2022/04/10 12:08:32;;;;;;;5.93;1.90;;;;;;;8.44;59.15;100314.91;10461481;28;20232;-68
2022/04/10 12:13:37;;;;;;;5.40;1.83;;;;;;;8.60;59.80;100303.69;10460891;28;20262;-69
2022/04/10 12:18:48;;;;;;;9.57;3.07;;;;;;;9.11;59.19;100303.44;10460391;28;20231;-68
2022/04/10 12:23:59;;;;;;;4.47;1.90;;;;;;;9.44;57.16;100294.63;10460514;28;20221;-65
2022/04/10 12:29:04;;;;;;;6.47;1.90;;;;;;;9.43;56.79;100297.22;10459978;28;20229;-70
2022/04/10 12:34:07;;;;;;;7.33;2.60;;;;;;;9.35;56.40;100292.94;10461351;28;20277;-68
2022/04/10 12:39:23;;;;;;;5.80;2.38;;;;;;;9.24;56.69;100294.78;10459781;28;20936;-67
2022/04/10 12:44:27;;;;;;;10.57;2.30;;;;;;;9.04;57.51;100294.00;10459846;28;20216;-65
2022/04/10 12:49:30;;;;;;;10.97;2.40;;;;;;;8.80;56.88;100298.44;10459230;28;20304;-68
2022/04/10 12:54:37;;;;;;;9.73;4.17;;;;;;;8.52;57.27;100307.16;10458588;28;20227;-67
2022/04/10 12:59:43;;;;;;;7.33;2.30;;;;;;;8.37;58.54;100304.63;10458945;28;20736;-67
2022/04/10 13:04:53;;;;;;;7.00;2.10;;;;;;;8.11;60.07;100302.03;10459591;28;20217;-67
2022/04/10 13:10:07;;;;;;;7.87;2.53;;;;;;;8.21;60.74;100319.25;10458700;28;20220;-66
2022/04/10 13:15:29;;;;;;;7.37;2.00;;;;;;;8.24;59.48;100310.66;10458060;28;20323;-69
2022/04/10 13:20:37;;;;;;;7.43;2.27;;;;;;;7.94;59.91;100301.16;10460131;28;20731;-69
2022/04/10 13:25:45;;;;;;;5.27;2.33;;;;;;;8.29;59.71;100316.69;10461215;28;20224;-68
2022/04/10 13:30:49;;;;;;;5.77;1.97;;;;;;;8.37;59.04;100315.78;10460754;28;20666;-69
2022/04/10 13:35:52;;;;;;;6.37;2.10;;;;;;;8.95;57.81;100307.00;10461046;28;20278;-66
2022/04/10 13:40:57;;;;;;;7.37;2.50;;;;;;;9.05;56.88;100315.56;10462256;28;20539;-69
2022/04/10 13:46:01;;;;;;;9.60;2.63;;;;;;;9.00;56.64;100323.38;10459659;28;20239;-72
2022/04/10 13:51:04;;;;;;;8.77;2.47;;;;;;;8.74;57.26;100314.84;10460339;28;20228;-67
2022/04/10 13:56:16;;;;;;;6.20;2.03;;;;;;;8.54;58.27;100320.94;10460465;28;20668;-67
2022/04/10 14:01:19;;;;;;;6.53;2.20;;;;;;;8.70;58.27;100315.72;10459856;28;20230;-67
2022/04/10 14:06:23;;;;;;;6.40;2.47;;;;;;;8.50;58.58;100334.75;10459626;28;20212;-66
2022/04/10 14:11:30;;;;;;;9.90;2.73;;;;;;;8.23;59.43;100334.75;10460714;28;20270;-68
2022/04/10 14:16:34;;;;;;;5.60;2.10;;;;;;;8.42;58.70;100332.16;10460194;28;20251;-67
2022/04/10 14:21:39;;;;;;;7.13;2.40;;;;;;;8.69;58.52;100336.41;10458922;28;20287;-66
2022/04/10 14:26:43;;;;;;;10.23;2.40;;;;;;;8.67;57.58;100346.78;10417550;28;20542;-71
2022/04/10 14:31:47;;;;;;;5.97;2.23;;;;;;;8.23;57.74;100350.28;10417744;28;20221;-69
2022/04/10 14:36:50;;;;;;;7.90;2.37;;;;;;;8.16;58.65;100342.50;10450085;28;20295;-67
2022/04/10 14:41:56;;;;;;;8.13;2.17;;;;;;;8.15;58.64;100345.97;10458887;28;20231;-69
2022/04/10 14:47:00;;;;;;;8.90;2.40;;;;;;;8.17;58.56;100349.41;10461230;28;20216;-67
2022/04/10 14:52:04;;;;;;;6.20;2.20;;;;;;;7.86;58.81;100362.34;10458299;28;20239;-68
2022/04/10 14:57:10;;;;;;;5.73;2.40;;;;;;;8.36;58.30;100357.19;10458231;28;20227;-66
2022/04/10 15:02:13;;;;;;;5.53;2.07;;;;;;;8.75;57.74;100359.72;10108128;28;10000548;-67
2022/04/10 15:07:17;;;;;;;7.53;2.37;;;;;;;8.46;57.76;100367.50;10454914;28;20221;-66
2022/04/10 15:12:23;;;;;;;9.30;2.60;;;;;;;8.47;57.52;100364.06;10454245;28;20232;-66
2022/04/10 15:17:26;;;;;;;7.67;2.90;;;;;;;8.36;58.24;100367.53;10456285;28;20221;-68
2022/04/10 15:22:29;;;;;;;7.87;2.20;;;;;;;8.40;57.32;100357.19;10454223;28;20221;-67
2022/04/10 15:27:35;;;;;;;5.37;2.20;;;;;;;8.35;55.77;100365.81;10457542;28;20680;-65
2022/04/10 15:32:38;;;;;;;7.13;2.30;;;;;;;8.22;56.00;100367.50;10457700;28;20270;-67
2022/04/10 15:37:42;;;;;;;7.20;2.13;;;;;;;8.36;56.18;100370.09;10461134;28;20209;-65
2022/04/10 15:42:46;;;;;;;5.50;1.90;;;;;;;8.33;56.67;100365.81;10465066;28;20243;-67
2022/04/10 15:47:49;;;;;;;8.60;2.67;;;;;;;8.25;57.48;100369.28;10465094;28;20534;-69
2022/04/10 15:52:53;;;;;;;6.70;2.33;;;;;;;8.12;59.00;100373.53;10466127;28;20555;-66
2022/04/10 15:57:58;;;;;;;6.13;2.60;;;;;;;8.00;58.92;100377.00;10464922;28;20216;-64
2022/04/10 16:03:02;;;;;;;8.10;3.00;;;;;;;8.00;59.42;100374.41;10464392;28;20224;-67
2022/04/10 16:08:06;;;;;;;5.27;2.30;;;;;;;7.87;59.40;100380.41;10464049;28;20565;-67
2022/04/10 16:13:11;;;;;;;5.33;2.47;;;;;;;7.81;58.88;100380.44;10463730;28;20320;-68
2022/04/10 16:18:14;;;;;;;6.17;2.50;;;;;;;7.77;59.71;100380.41;10464019;28;20258;-66
2022/04/10 16:23:18;;;;;;;9.57;2.57;;;;;;;7.67;60.21;100384.69;10463718;28;20213;-65
2022/04/10 16:39:05;;;;;;;8.93;3.17;;;;;;;7.34;62.02;100391.47;10463203;28;20298;-66
2022/04/10 16:44:10;;;;;;;8.63;3.03;;;;;;;7.46;61.83;100392.38;10462866;28;20307;-66
2022/04/10 16:49:13;;;;;;;7.87;3.27;;;;;;;7.36;62.29;100389.78;10461942;28;20594;-68
2022/04/10 16:59:41;;;;;;;23.17;9.00;;;;;;;7.35;62.57;100400.97;10462432;28;20736;-67
2022/04/10 17:04:45;;;;;;;8.93;2.73;;;;;;;7.23;63.08;100400.94;10462113;28;20291;-66
2022/04/10 17:09:48;;;;;;;6.57;2.70;;;;;;;7.08;62.27;100414.63;10461555;28;20303;-66
2022/04/10 17:14:54;;;;;;;7.63;3.07;;;;;;;7.02;62.81;100412.84;10461822;28;20233;-65
2022/04/10 17:19:57;;;;;;;7.10;2.70;;;;;;;6.91;63.33;100417.13;10461544;28;20232;-67
2022/04/10 17:25:01;;;;;;;7.90;3.13;;;;;;;6.88;64.10;100414.53;10460781;28;20525;-65
2022/04/10 17:30:07;;;;;;;9.83;3.73;;;;;;;6.77;65.02;100423.91;10461076;28;20320;-64
2022/04/10 17:35:11;;;;;;;7.90;3.07;;;;;;;6.76;66.46;100434.22;10460599;28;20303;-65
2022/04/10 17:40:14;;;;;;;8.77;3.43;;;;;;;6.68;66.23;100428.13;10460341;28;20221;-66
2022/04/10 17:45:18;;;;;;;9.77;3.00;;;;;;;6.65;67.14;100428.13;10460325;28;20306;-67
2022/04/10 17:50:22;;;;;;;13.93;4.20;;;;;;;6.53;67.82;100438.34;10460228;28;20551;-64
2022/04/10 17:55:25;;;;;;;10.03;3.43;;;;;;;6.41;68.82;100448.56;10460072;28;20213;-66
2022/04/10 18:00:30;;;;;;;25.33;12.07;;;;;;;6.37;69.15;100454.53;10459132;28;20231;-66
2022/04/10 18:05:33;;;;;;;8.27;3.77;;;;;;;6.28;69.89;100450.16;10459795;28;20217;-67
2022/04/10 18:10:36;;;;;;;8.47;3.57;;;;;;;6.29;69.61;100451.91;10459662;28;20228;-66
2022/04/10 18:15:41;;;;;;;7.67;3.33;;;;;;;6.22;70.47;100468.19;10459257;28;20506;-67
2022/04/10 18:20:45;;;;;;;11.37;4.63;;;;;;;6.21;70.63;100476.78;10459185;28;20273;-65
2022/04/10 18:25:51;;;;;;;12.10;4.33;;;;;;;6.12;71.45;100478.38;10459177;28;20217;-66
2022/04/10 18:30:56;;;;;;;10.77;4.20;;;;;;;6.08;71.61;100479.19;10458822;28;20221;-65
2022/04/10 18:36:03;;;;;;;10.27;4.47;;;;;;;6.01;71.88;100477.41;10457709;28;20220;-68
2022/04/10 18:41:09;;;;;;;13.20;5.60;;;;;;;5.99;72.14;100487.69;10456736;28;20307;-67
2022/04/10 18:46:14;;;;;;;12.87;4.80;;;;;;;5.94;73.55;100501.41;10458586;28;20216;-68
2022/04/10 18:51:18;;;;;;;11.90;4.80;;;;;;;5.87;72.97;100513.31;10458273;28;20618;-68
2022/04/10 18:56:21;;;;;;;9.80;4.27;;;;;;;5.86;72.99;100498.72;10458450;28;20212;-67
2022/04/10 19:01:26;;;;;;;13.03;4.90;;;;;;;5.82;73.38;100502.06;10458145;28;20217;-68
2022/04/10 19:06:30;;;;;;;12.07;4.50;;;;;;;5.78;75.23;100506.31;10458544;28;20283;-68
2022/04/10 19:11:36;;;;;;;14.00;5.10;;;;;;;5.71;75.20;100507.09;10460057;28;20315;-65
2022/04/10 19:16:41;;;;;;;11.27;5.23;;;;;;;5.68;75.53;100504.50;10466265;28;20212;-69
2022/04/10 19:21:44;;;;;;;15.17;6.63;;;;;;;5.65;75.12;100509.59;10465953;28;20221;-67
2022/04/10 19:26:48;;;;;;;16.77;6.70;;;;;;;5.60;75.98;100515.53;10465672;28;20362;-69
2022/04/10 19:31:53;;;;;;;14.90;6.17;;;;;;;5.52;77.19;100515.44;10465607;28;20255;-68
2022/04/10 19:36:57;;;;;;;16.63;8.00;;;;;;;5.48;77.85;100511.13;10115572;28;10000469;-68
2022/04/10 19:42:03;;;;;;;17.93;7.00;;;;;;;5.39;76.21;100520.41;10461104;28;20279;-69
2022/04/10 19:47:08;;;;;;;17.00;9.17;;;;;;;5.41;77.96;100516.16;10460876;28;20280;-67
2022/04/10 19:52:12;;;;;;;14.90;6.30;;;;;;;5.41;77.73;100526.44;10460896;28;20303;-71
2022/04/10 19:57:16;;;;;;;14.40;6.90;;;;;;;5.36;78.29;100523.84;10460890;28;20185;-66
2022/04/10 20:02:20;;;;;;;14.93;6.47;;;;;;;5.27;78.43;100520.25;10460268;28;20185;-69
2022/04/10 20:07:24;;;;;;;14.67;6.27;;;;;;;5.23;77.83;100519.34;10460701;28;20242;-69
2022/04/10 20:12:27;;;;;;;15.93;5.73;;;;;;;5.21;77.94;100525.31;10460083;28;20316;-69
2022/04/10 20:17:33;;;;;;;14.60;5.90;;;;;;;5.17;76.35;100519.28;10460098;28;20193;-68
2022/04/10 20:22:36;;;;;;;15.10;6.60;;;;;;;5.12;78.84;100520.03;10462589;28;20544;-66
2022/04/10 20:27:40;;;;;;;13.67;6.13;;;;;;;5.12;78.70;100523.50;10463623;28;20223;-65
2022/04/10 20:32:44;;;;;;;14.87;6.60;;;;;;;5.02;77.06;100531.91;10463081;28;20541;-66
2022/04/10 20:37:48;;;;;;;15.07;5.90;;;;;;;4.97;76.52;100536.09;10463329;28;20223;-67
2022/04/10 20:42:51;;;;;;;16.60;6.57;;;;;;;5.03;75.95;100540.47;10463020;28;20656;-66
2022/04/10 20:47:56;;;;;;;16.97;7.57;;;;;;;5.12;76.62;100532.91;10462801;28;20212;-65
2022/04/10 20:52:59;;;;;;;14.97;7.30;;;;;;;5.11;76.06;100534.59;10462830;28;20239;-66
2022/04/10 20:58:04;;;;;;;18.13;6.77;;;;;;;5.13;75.75;100532.94;10462732;28;20220;-67
2022/04/10 21:03:09;;;;;;;17.40;7.43;;;;;;;5.19;75.91;100532.16;10463126;28;20303;-66
2022/04/10 21:08:12;;;;;;;18.83;7.40;;;;;;;5.24;75.95;100545.94;10462131;28;20216;-66
2022/04/10 21:13:16;;;;;;;15.87;7.63;;;;;;;5.22;76.40;100542.47;10461669;28;20337;-68
2022/04/10 21:18:21;;;;;;;16.90;8.00;;;;;;;5.26;77.25;100545.13;10461547;28;20243;-67
2022/04/10 21:23:25;;;;;;;17.77;7.37;;;;;;;5.20;77.52;100546.72;10461057;28;20217;-66
2022/04/10 21:28:28;;;;;;;19.67;7.57;;;;;;;5.14;78.17;100546.66;10461745;28;20221;-66
2022/04/10 21:33:36;;;;;;;12.33;6.73;;;;;;;5.12;79.24;100543.19;10460573;28;20234;-66
2022/04/10 21:38:39;;;;;;;20.17;7.33;;;;;;;5.11;79.67;100544.06;10460718;28;20543;-65
2022/04/10 21:43:46;;;;;;;16.07;7.40;;;;;;;5.11;79.43;100549.19;10460507;28;20695;-68
2022/04/10 21:48:50;;;;;;;14.93;7.03;;;;;;;5.04;80.21;100545.66;10460785;28;20298;-67
2022/04/10 21:53:55;;;;;;;16.30;6.97;;;;;;;4.92;81.88;100550.59;10460521;28;20248;-66
2022/04/10 21:58:59;;;;;;;15.10;7.00;;;;;;;4.91;82.75;100555.72;10460021;28;20237;-66
2022/04/10 22:04:05;;;;;;;18.63;7.20;;;;;;;4.89;83.08;100548.00;10459848;28;20244;-67
2022/04/10 22:09:09;;;;;;;14.57;7.10;;;;;;;4.90;84.50;100554.84;10459803;28;20220;-69
2022/04/10 22:14:13;;;;;;;14.00;6.77;;;;;;;4.91;84.58;100556.59;10459729;28;20253;-65
2022/04/10 22:19:17;;;;;;;16.30;6.47;;;;;;;4.82;85.68;100566.72;10459654;28;20282;-66
2022/04/10 22:24:20;;;;;;;12.00;5.47;;;;;;;4.77;86.13;100562.34;10459509;28;20230;-67
2022/04/10 22:29:24;;;;;;;12.80;5.67;;;;;;;4.71;87.24;100574.25;10459386;28;20531;-68
2022/04/10 22:34:29;;;;;;;17.60;5.70;;;;;;;4.72;87.57;100567.44;10459036;28;20225;-66
2022/04/10 22:39:33;;;;;;;13.80;5.53;;;;;;;4.60;88.27;100573.25;10460228;28;20213;-67
2022/04/10 22:44:38;;;;;;;12.53;6.57;;;;;;;4.56;89.60;100574.00;10458917;28;20232;-65
2022/04/10 22:49:42;;;;;;;13.57;4.97;;;;;;;4.60;89.88;100574.94;10466174;28;20231;-68
2022/04/10 22:54:46;;;;;;;11.73;5.70;;;;;;;4.60;89.69;100572.38;10467174;28;20291;-66
2022/04/10 22:59:49;;;;;;;10.50;5.03;;;;;;;4.47;90.61;100572.97;10467101;28;20514;-70
2022/04/10 23:04:53;;;;;;;18.27;5.23;;;;;;;4.38;91.94;100578.81;10466827;28;20221;-66
2022/04/10 23:09:57;;;;;;;9.60;4.27;;;;;;;4.34;92.40;100581.31;10466600;28;20691;-70
2022/04/10 23:15:00;;;;;;;10.67;4.80;;;;;;;4.38;93.05;100568.53;10448940;28;20244;-70
2022/04/10 23:20:08;;;;;;;9.00;4.70;;;;;;;4.42;92.97;100570.34;10466333;28;20222;-68
2022/04/10 23:25:12;;;;;;;14.63;4.53;;;;;;;4.34;93.99;100565.91;10466501;28;20379;-69
2022/04/10 23:30:15;;;;;;;10.30;4.53;;;;;;;4.30;95.02;100575.25;10465949;28;20296;-68
2022/04/10 23:35:20;;;;;;;12.87;5.20;;;;;;;4.26;95.52;100572.63;10465654;28;20227;-70
2022/04/10 23:40:23;;;;;;;12.60;4.73;;;;;;;4.24;95.87;100582.88;10465581;28;20217;-71
2022/04/10 23:45:27;;;;;;;10.50;4.93;;;;;;;4.22;95.64;100581.09;10465772;28;20216;-69
2022/04/10 23:50:31;;;;;;;11.90;4.70;;;;;;;4.19;95.94;100581.03;10465311;28;20303;-68
2022/04/10 23:55:34;;;;;;;11.60;5.30;;;;;;;4.22;95.58;100574.25;10464738;28;20221;-66
